sensor_id;sensor_type;location;lat;lon;timestamp;pressure;altitude;pressure_sealevel;temperature;humidity
27294;BME280;14785;52.556;13.430;2023-12-22T00:00:08;-16026.31;;;7.50;100.00
27294;BME280;14785;52.556;13.430;2023-12-22T00:02:33;-15054.03;;;7.92;100.00
27294;BME280;14785;52.556;13.430;2023-12-22T00:04:58;-14065.19;;;7.62;100.00
27294;BME280;14785;52.556;13.430;2023-12-22T00:07:24;-14066.25;;;7.67;100.00
27294;BME280;14785;52.556;13.430;2023-12-22T00:09:49;-13746.06;;;8.03;100.00
27294;BME280;14785;52.556;13.430;2023-12-22T00:12:15;-12425.19;;;7.50;100.00
27294;BME280;14785;52.556;13.430;2023-12-22T00:14:40;-11444.72;;;7.63;100.00
27294;BME280;14785;52.556;13.430;2023-12-22T00:17:07;-11441.97;;;7.47;100.00
27294;BME280;14785;52.556;13.430;2023-12-22T00:19:33;-11777.53;;;7.93;100.00
27294;BME280;14785;52.556;13.430;2023-12-22T00:21:58;-11119.06;;;7.76;100.00
27294;BME280;14785;52.556;13.430;2023-12-22T00:24:24;-9484.78;;;8.14;100.00
27294;BME280;14785;52.556;13.430;2023-12-22T00:26:49;-7980.53;;;7.56;100.00
27294;BME280;14785;52.556;13.430;2023-12-22T00:29:14;-8398.75;;;7.81;100.00
27294;BME280;14785;52.556;13.430;2023-12-22T00:31:40;-6165.88;;;8.19;100.00
27294;BME280;14785;52.556;13.430;2023-12-22T00:34:05;-2713.75;;;8.00;100.00
27294;BME280;14785;52.556;13.430;2023-12-22T00:36:31;-1300.50;;;7.72;100.00
27294;BME280;14785;52.556;13.430;2023-12-22T00:38:56;-2074.69;;;8.30;100.00
27294;BME280;14785;52.556;13.430;2023-12-22T00:41:21;442.06;;;8.00;100.00
27294;BME280;14785;52.556;13.430;2023-12-22T00:43:47;1704.22;;;8.49;100.00
27294;BME280;14785;52.556;13.430;2023-12-22T00:46:13;3153.31;;;8.42;100.00
27294;BME280;14785;52.556;13.430;2023-12-22T00:48:38;4916.28;;;8.00;100.00
27294;BME280;14785;52.556;13.430;2023-12-22T00:51:05;4254.84;;;7.70;100.00
27294;BME280;14785;52.556;13.430;2023-12-22T00:53:31;2477.63;;;7.73;100.00
27294;BME280;14785;52.556;13.430;2023-12-22T00:55:57;1590.97;;;8.50;100.00
27294;BME280;14785;52.556;13.430;2023-12-22T00:58:22;1981.06;;;7.67;100.00
27294;BME280;14785;52.556;13.430;2023-12-22T01:00:48;398.31;;;7.98;100.00
27294;BME280;14785;52.556;13.430;2023-12-22T01:03:13;919.50;;;7.70;100.00
27294;BME280;14785;52.556;13.430;2023-12-22T01:05:38;-135.44;;;8.79;100.00
27294;BME280;14785;52.556;13.430;2023-12-22T01:08:04;196.84;;;7.43;100.00
27294;BME280;14785;52.556;13.430;2023-12-22T01:10:29;-1542.00;;;7.77;100.00
27294;BME280;14785;52.556;13.430;2023-12-22T01:12:55;-3370.47;;;7.80;100.00
27294;BME280;14785;52.556;13.430;2023-12-22T01:15:20;-4747.03;;;7.92;100.00
27294;BME280;14785;52.556;13.430;2023-12-22T01:17:46;-5617.94;;;7.70;100.00
27294;BME280;14785;52.556;13.430;2023-12-22T01:20:12;-8109.38;;;7.62;100.00
27294;BME280;14785;52.556;13.430;2023-12-22T01:22:37;-9806.16;;;7.66;100.00
27294;BME280;14785;52.556;13.430;2023-12-22T01:25:04;-11121.22;;;7.89;100.00
27294;BME280;14785;52.556;13.430;2023-12-22T01:27:31;-11436.47;;;7.15;100.00
27294;BME280;14785;52.556;13.430;2023-12-22T01:29:56;-13411.84;;;7.70;100.00
27294;BME280;14785;52.556;13.430;2023-12-22T01:32:21;-14395.03;;;7.73;100.00
27294;BME280;14785;52.556;13.430;2023-12-22T01:34:47;-14720.00;;;7.62;100.00
27294;BME280;14785;52.556;13.430;2023-12-22T01:37:12;-15051.97;;;7.82;100.00
27294;BME280;14785;52.556;13.430;2023-12-22T01:39:38;-16034.69;;;7.84;100.00
27294;BME280;14785;52.556;13.430;2023-12-22T01:42:03;-15711.63;;;8.03;100.00
27294;BME280;14785;52.556;13.430;2023-12-22T01:44:29;-14735.84;;;8.33;100.00
27294;BME280;14785;52.556;13.430;2023-12-22T01:46:54;-15362.94;;;7.12;100.00
27294;BME280;14785;52.556;13.430;2023-12-22T01:49:21;-16034.19;;;7.82;100.00
27294;BME280;14785;52.556;13.430;2023-12-22T01:51:46;-16695.63;;;8.09;100.00
27294;BME280;14785;52.556;13.430;2023-12-22T01:54:14;-15383.06;;;7.98;100.00
27294;BME280;14785;52.556;13.430;2023-12-22T01:56:41;-15065.75;;;8.43;100.00
27294;BME280;14785;52.556;13.430;2023-12-22T01:59:07;-15048.28;;;7.66;100.00
27294;BME280;14785;52.556;13.430;2023-12-22T02:01:33;-15721.00;;;8.42;100.00
27294;BME280;14785;52.556;13.430;2023-12-22T02:03:59;-14737.88;;;8.42;100.00
27294;BME280;14785;52.556;13.430;2023-12-22T02:06:24;-14061.00;;;7.43;100.00
27294;BME280;14785;52.556;13.430;2023-12-22T02:08:50;-14720.91;;;7.66;100.00
27294;BME280;14785;52.556;13.430;2023-12-22T02:11:16;-14395.69;;;7.76;100.00
27294;BME280;14785;52.556;13.430;2023-12-22T02:13:43;-14061.66;;;7.46;100.00
27294;BME280;14785;52.556;13.430;2023-12-22T02:16:19;-14723.81;;;7.79;100.00
27294;BME280;14785;52.556;13.430;2023-12-22T02:18:48;-14412.13;;;8.52;100.00
27294;BME280;14785;52.556;13.430;2023-12-22T02:21:16;-15372.13;;;7.51;100.00
27294;BME280;14785;52.556;13.430;2023-12-22T02:23:41;-15366.00;;;7.25;100.00
27294;BME280;14785;52.556;13.430;2023-12-22T02:26:23;-15039.31;;;7.27;100.00
27294;BME280;14785;52.556;13.430;2023-12-22T02:28:50;-16026.31;;;7.50;100.00
27294;BME280;14785;52.556;13.430;2023-12-22T02:31:22;-15698.63;;;7.48;100.00
27294;BME280;14785;52.556;13.430;2023-12-22T02:33:49;-14715.50;;;7.42;100.00
27294;BME280;14785;52.556;13.430;2023-12-22T02:36:20;-15708.03;;;7.88;100.00
27294;BME280;14785;52.556;13.430;2023-12-22T02:38:47;-15707.28;;;7.84;100.00
27294;BME280;14785;52.556;13.430;2023-12-22T02:41:13;-15690.47;;;7.14;100.00
27294;BME280;14785;52.556;13.430;2023-12-22T02:43:39;-16674.47;;;7.26;100.00
27294;BME280;14785;52.556;13.430;2023-12-22T02:46:04;-15690.94;;;7.16;100.00
27294;BME280;14785;52.556;13.430;2023-12-22T02:48:37;-17022.00;;;8.05;100.00
27294;BME280;14785;52.556;13.430;2023-12-22T02:51:03;-17007.09;;;7.48;100.00
27294;BME280;14785;52.556;13.430;2023-12-22T02:53:28;-17655.31;;;7.26;100.00
27294;BME280;14785;52.556;13.430;2023-12-22T02:55:54;-17647.16;;;6.96;100.00
27294;BME280;14785;52.556;13.430;2023-12-22T02:58:19;-17647.41;;;6.97;100.00
27294;BME280;14785;52.556;13.430;2023-12-22T03:00:44;-17975.25;;;7.01;100.00
27294;BME280;14785;52.556;13.430;2023-12-22T03:03:11;-17674.09;;;7.96;100.00
27294;BME280;14785;52.556;13.430;2023-12-22T03:05:36;-16675.25;;;7.29;100.00
27294;BME280;14785;52.556;13.430;2023-12-22T03:08:02;-16353.75;;;7.51;100.00
27294;BME280;14785;52.556;13.430;2023-12-22T03:10:29;-16027.56;;;7.55;100.00
27294;BME280;14785;52.556;13.430;2023-12-22T03:12:55;-16355.63;;;7.59;100.00
27294;BME280;14785;52.556;13.430;2023-12-22T03:15:20;-16990.47;;;6.84;100.00
27294;BME280;14785;52.556;13.430;2023-12-22T03:17:45;-17980.25;;;7.19;100.00
27294;BME280;14785;52.556;13.430;2023-12-22T03:20:11;-17975.81;;;7.03;100.00
27294;BME280;14785;52.556;13.430;2023-12-22T03:22:36;-18309.03;;;7.26;100.00
27294;BME280;14785;52.556;13.430;2023-12-22T03:25:02;-17321.47;;;7.00;100.00
27294;BME280;14785;52.556;13.430;2023-12-22T03:27:27;-17322.53;;;7.04;100.00
27294;BME280;14785;52.556;13.430;2023-12-22T03:29:53;-17973.59;;;6.95;100.00
27294;BME280;14785;52.556;13.430;2023-12-22T03:32:18;-18300.00;;;6.94;100.00
27294;BME280;14785;52.556;13.430;2023-12-22T03:34:44;-18309.59;;;7.28;100.00
27294;BME280;14785;52.556;13.430;2023-12-22T03:37:10;-18634.13;;;7.20;100.00
27294;BME280;14785;52.556;13.430;2023-12-22T03:39:35;-18946.66;;;6.72;100.00
27294;BME280;14785;52.556;13.430;2023-12-22T03:42:00;-19283.09;;;7.05;100.00
27294;BME280;14785;52.556;13.430;2023-12-22T03:44:26;-19276.25;;;6.82;100.00
27294;BME280;14785;52.556;13.430;2023-12-22T03:46:52;-19272.22;;;6.69;100.00
27294;BME280;14785;52.556;13.430;2023-12-22T03:49:18;-19284.91;;;7.11;100.00
27294;BME280;14785;52.556;13.430;2023-12-22T03:51:44;-19281.03;;;6.98;100.00
27294;BME280;14785;52.556;13.430;2023-12-22T03:54:10;-19604.53;;;6.88;100.00
27294;BME280;14785;52.556;13.430;2023-12-22T03:56:35;-19608.19;;;7.00;100.00
27294;BME280;14785;52.556;13.430;2023-12-22T03:59:00;-19275.50;;;6.80;100.00
27294;BME280;14785;52.556;13.430;2023-12-22T04:01:26;-19274.44;;;6.76;100.00
27294;BME280;14785;52.556;13.430;2023-12-22T04:03:51;-19272.34;;;6.69;100.00
27294;BME280;14785;52.556;13.430;2023-12-22T04:06:18;-18973.34;;;7.63;100.00
27294;BME280;14785;52.556;13.430;2023-12-22T04:08:43;-18949.56;;;6.82;100.00
27294;BME280;14785;52.556;13.430;2023-12-22T04:11:09;-18951.50;;;6.88;100.00
27294;BME280;14785;52.556;13.430;2023-12-22T04:13:34;-19276.84;;;6.84;100.00
27294;BME280;14785;52.556;13.430;2023-12-22T04:15:59;-19604.53;;;6.88;100.00
27294;BME280;14785;52.556;13.430;2023-12-22T04:18:25;-19592.69;;;6.49;100.00
27294;BME280;14785;52.556;13.430;2023-12-22T04:20:50;-19588.53;;;6.29;100.00
27294;BME280;14785;52.556;13.430;2023-12-22T04:23:18;-19599.78;;;6.66;100.00
27294;BME280;14785;52.556;13.430;2023-12-22T04:25:44;-19619.06;;;7.30;100.00
27294;BME280;14785;52.556;13.430;2023-12-22T04:28:09;-19607.81;;;6.93;100.00
27294;BME280;14785;52.556;13.430;2023-12-22T04:30:35;-19593.06;;;6.44;100.00
27294;BME280;14785;52.556;13.430;2023-12-22T04:33:00;-19590.34;;;6.35;100.00
27294;BME280;14785;52.556;13.430;2023-12-22T04:35:26;-19584.56;;;6.16;100.00
27294;BME280;14785;52.556;13.430;2023-12-22T04:37:51;-19604.63;;;6.82;100.00
27294;BME280;14785;52.556;13.430;2023-12-22T04:40:17;-19582.13;;;6.08;100.00
27294;BME280;14785;52.556;13.430;2023-12-22T04:42:42;-19618.91;;;7.29;100.00
27294;BME280;14785;52.556;13.430;2023-12-22T04:45:08;-19604.94;;;6.83;100.00
27294;BME280;14785;52.556;13.430;2023-12-22T04:47:33;-19590.19;;;6.35;100.00
27294;BME280;14785;52.556;13.430;2023-12-22T04:49:58;-19603.41;;;6.78;100.00
27294;BME280;14785;52.556;13.430;2023-12-22T04:52:24;-19606.00;;;6.87;100.00
27294;BME280;14785;52.556;13.430;2023-12-22T04:54:49;-19598.09;;;6.61;100.00
27294;BME280;14785;52.556;13.430;2023-12-22T04:57:15;-19600.06;;;6.67;100.00
27294;BME280;14785;52.556;13.430;2023-12-22T04:59:40;-19584.25;;;6.15;100.00
27294;BME280;14785;52.556;13.430;2023-12-22T05:02:07;-19602.66;;;6.76;100.00
27294;BME280;14785;52.556;13.430;2023-12-22T05:04:32;-19606.75;;;6.89;100.00
27294;BME280;14785;52.556;13.430;2023-12-22T05:06:57;-19602.19;;;6.74;100.00
27294;BME280;14785;52.556;13.430;2023-12-22T05:09:23;-19611.63;;;7.05;100.00
27294;BME280;14785;52.556;13.430;2023-12-22T05:11:50;-19585.47;;;6.19;100.00
27294;BME280;14785;52.556;13.430;2023-12-22T05:14:16;-19588.81;;;6.30;100.00
27294;BME280;14785;52.556;13.430;2023-12-22T05:16:41;-19572.69;;;5.77;100.00
27294;BME280;14785;52.556;13.430;2023-12-22T05:19:06;-19578.78;;;5.97;100.00
27294;BME280;14785;52.556;13.430;2023-12-22T05:21:32;-19580.00;;;6.01;100.00
27294;BME280;14785;52.556;13.430;2023-12-22T05:23:57;-19567.53;;;5.60;100.00
27294;BME280;14785;52.556;13.430;2023-12-22T05:26:24;-19567.22;;;5.59;100.00
27294;BME280;14785;52.556;13.430;2023-12-22T05:28:49;-19600.06;;;6.67;100.00
27294;BME280;14785;52.556;13.430;2023-12-22T05:31:16;-19605.84;;;6.86;100.00
27294;BME280;14785;52.556;13.430;2023-12-22T05:33:41;-19604.63;;;6.82;100.00
27294;BME280;14785;52.556;13.430;2023-12-22T05:36:07;-19591.88;;;6.40;100.00
27294;BME280;14785;52.556;13.430;2023-12-22T05:38:37;-19597.50;;;6.59;100.00
27294;BME280;14785;52.556;13.430;2023-12-22T05:41:02;-19578.03;;;5.95;100.00
27294;BME280;14785;52.556;13.430;2023-12-22T05:43:28;-19580.31;;;6.02;100.00
27294;BME280;14785;52.556;13.430;2023-12-22T05:45:53;-19586.25;;;6.22;100.00
27294;BME280;14785;52.556;13.430;2023-12-22T05:48:19;-19595.81;;;6.53;100.00
27294;BME280;14785;52.556;13.430;2023-12-22T05:50:47;-19605.84;;;6.86;100.00
27294;BME280;14785;52.556;13.430;2023-12-22T05:53:12;-19577.56;;;5.93;100.00
27294;BME280;14785;52.556;13.430;2023-12-22T05:55:38;-19576.66;;;5.90;100.00
27294;BME280;14785;52.556;13.430;2023-12-22T05:58:03;-19611.94;;;7.06;100.00
27294;BME280;14785;52.556;13.430;2023-12-22T06:00:29;-19586.25;;;6.22;100.00
27294;BME280;14785;52.556;13.430;2023-12-22T06:02:54;-19596.88;;;6.57;100.00
27294;BME280;14785;52.556;13.430;2023-12-22T06:05:20;-19595.97;;;6.54;100.00
27294;BME280;14785;52.556;13.430;2023-12-22T06:07:46;-19582.13;;;6.08;100.00
27294;BME280;14785;52.556;13.430;2023-12-22T06:10:11;-19591.56;;;6.39;100.00
27294;BME280;14785;52.556;13.430;2023-12-22T06:12:38;-19587.31;;;6.25;100.00
27294;BME280;14785;52.556;13.430;2023-12-22T06:15:04;-19601.28;;;6.71;100.00
27294;BME280;14785;52.556;13.430;2023-12-22T06:17:30;-19610.56;;;7.02;100.00
27294;BME280;14785;52.556;13.430;2023-12-22T06:19:55;-19609.19;;;6.97;100.00
27294;BME280;14785;52.556;13.430;2023-12-22T06:22:20;-19625.91;;;7.52;100.00
27294;BME280;14785;52.556;13.430;2023-12-22T06:24:46;-19594.50;;;6.55;100.00
27294;BME280;14785;52.556;13.430;2023-12-22T06:27:12;-19581.75;;;6.13;100.00
27294;BME280;14785;52.556;13.430;2023-12-22T06:29:38;-19593.91;;;6.53;100.00
27294;BME280;14785;52.556;13.430;2023-12-22T06:32:04;-19608.59;;;6.95;100.00
27294;BME280;14785;52.556;13.430;2023-12-22T06:34:31;-19280.41;;;6.96;100.00
27294;BME280;14785;52.556;13.430;2023-12-22T06:36:57;-19259.81;;;6.27;100.00
27294;BME280;14785;52.556;13.430;2023-12-22T06:39:25;-19274.00;;;6.75;100.00
27294;BME280;14785;52.556;13.430;2023-12-22T06:41:51;-18940.03;;;6.49;100.00
27294;BME280;14785;52.556;13.430;2023-12-22T06:44:17;-18628.06;;;6.99;100.00
27294;BME280;14785;52.556;13.430;2023-12-22T06:46:42;-18599.25;;;5.99;100.00
27294;BME280;14785;52.556;13.430;2023-12-22T06:49:08;-19253.22;;;6.05;100.00
27294;BME280;14785;52.556;13.430;2023-12-22T06:51:33;-19585.47;;;6.19;100.00
27294;BME280;14785;52.556;13.430;2023-12-22T06:54:03;-19573.47;;;5.79;100.00
27294;BME280;14785;52.556;13.430;2023-12-22T06:56:33;-19572.53;;;5.76;100.00
27294;BME280;14785;52.556;13.430;2023-12-22T06:58:59;-19561.75;;;5.41;100.00
27294;BME280;14785;52.556;13.430;2023-12-22T07:01:27;-19569.34;;;5.66;100.00
27294;BME280;14785;52.556;13.430;2023-12-22T07:03:52;-19570.56;;;5.70;100.00
27294;BME280;14785;52.556;13.430;2023-12-22T07:06:19;-19573.31;;;5.79;100.00
27294;BME280;14785;52.556;13.430;2023-12-22T07:11:57;-19563.28;;;5.46;100.00
27294;BME280;14785;52.556;13.430;2023-12-22T07:14:23;-19579.69;;;6.00;100.00
27294;BME280;14785;52.556;13.430;2023-12-22T07:16:49;-19577.13;;;5.92;100.00
27294;BME280;14785;52.556;13.430;2023-12-22T07:19:15;-19578.19;;;5.95;100.00
27294;BME280;14785;52.556;13.430;2023-12-22T07:21:40;-19568.75;;;5.64;100.00
27294;BME280;14785;52.556;13.430;2023-12-22T07:24:06;-19580.00;;;6.01;100.00
27294;BME280;14785;52.556;13.430;2023-12-22T07:26:32;-19592.63;;;6.43;100.00
27294;BME280;14785;52.556;13.430;2023-12-22T07:28:57;-19573.00;;;5.78;100.00
27294;BME280;14785;52.556;13.430;2023-12-22T07:31:23;-19594.59;;;6.49;100.00
27294;BME280;14785;52.556;13.430;2023-12-22T07:33:49;-19582.44;;;6.09;100.00
27294;BME280;14785;52.556;13.430;2023-12-22T07:36:14;-19585.16;;;6.18;100.00
27294;BME280;14785;52.556;13.430;2023-12-22T07:38:40;-19597.63;;;6.59;100.00
27294;BME280;14785;52.556;13.430;2023-12-22T07:41:05;-19582.75;;;6.10;100.00
27294;BME280;14785;52.556;13.430;2023-12-22T07:43:31;-19585.94;;;6.21;100.00
27294;BME280;14785;52.556;13.430;2023-12-22T07:45:56;-19584.56;;;6.16;100.00
27294;BME280;14785;52.556;13.430;2023-12-22T07:48:22;-19581.22;;;6.05;100.00
27294;BME280;14785;52.556;13.430;2023-12-22T07:50:49;-19595.81;;;6.53;100.00
27294;BME280;14785;52.556;13.430;2023-12-22T07:53:14;-19595.50;;;6.52;100.00
27294;BME280;14785;52.556;13.430;2023-12-22T07:55:40;-19603.72;;;6.79;100.00
27294;BME280;14785;52.556;13.430;2023-12-22T07:58:05;-19594.00;;;6.47;100.00
27294;BME280;14785;52.556;13.430;2023-12-22T08:00:31;-19593.06;;;6.44;100.00
27294;BME280;14785;52.556;13.430;2023-12-22T08:02:56;-19587.75;;;6.27;100.00
27294;BME280;14785;52.556;13.430;2023-12-22T08:05:22;-19610.41;;;7.01;100.00
27294;BME280;14785;52.556;13.430;2023-12-22T08:07:47;-19597.63;;;6.59;100.00
27294;BME280;14785;52.556;13.430;2023-12-22T08:10:13;-19589.44;;;6.32;100.00
27294;BME280;14785;52.556;13.430;2023-12-22T08:12:38;-19596.13;;;6.54;100.00
27294;BME280;14785;52.556;13.430;2023-12-22T08:15:04;-19591.56;;;6.39;100.00
27294;BME280;14785;52.556;13.430;2023-12-22T08:17:30;-19587.91;;;6.27;100.00
27294;BME280;14785;52.556;13.430;2023-12-22T08:19:56;-19586.09;;;6.21;100.00
27294;BME280;14785;52.556;13.430;2023-12-22T08:22:22;-19584.25;;;6.15;100.00
27294;BME280;14785;52.556;13.430;2023-12-22T08:24:48;-19593.84;;;6.47;100.00
27294;BME280;14785;52.556;13.430;2023-12-22T08:27:13;-19588.38;;;6.29;100.00
27294;BME280;14785;52.556;13.430;2023-12-22T08:29:39;-19604.03;;;6.80;100.00
27294;BME280;14785;52.556;13.430;2023-12-22T08:32:04;-19599.78;;;6.66;100.00
27294;BME280;14785;52.556;13.430;2023-12-22T08:34:30;-19576.06;;;5.88;100.00
27294;BME280;14785;52.556;13.430;2023-12-22T08:36:55;-19571.63;;;5.73;100.00
27294;BME280;14785;52.556;13.430;2023-12-22T08:39:21;-19602.72;;;6.82;100.00
27294;BME280;14785;52.556;13.430;2023-12-22T08:41:47;-19587.91;;;6.27;100.00
27294;BME280;14785;52.556;13.430;2023-12-22T08:44:13;-19587.53;;;6.32;100.00
27294;BME280;14785;52.556;13.430;2023-12-22T08:46:41;-19565.31;;;5.59;100.00
27294;BME280;14785;52.556;13.430;2023-12-22T08:49:07;-19579.00;;;6.04;100.00
27294;BME280;14785;52.556;13.430;2023-12-22T08:51:33;-19593.59;;;6.52;100.00
27294;BME280;14785;52.556;13.430;2023-12-22T08:53:59;-19260.09;;;6.28;100.00
27294;BME280;14785;52.556;13.430;2023-12-22T08:56:24;-19260.09;;;6.28;100.00
27294;BME280;14785;52.556;13.430;2023-12-22T08:58:52;-19254.56;;;6.10;100.00
27294;BME280;14785;52.556;13.430;2023-12-22T09:01:18;-18608.34;;;6.31;100.00
27294;BME280;14785;52.556;13.430;2023-12-22T09:03:44;-18289.53;;;6.57;100.00
27294;BME280;14785;52.556;13.430;2023-12-22T09:06:20;-18593.19;;;5.78;100.00
27294;BME280;14785;52.556;13.430;2023-12-22T09:08:46;-18277.50;;;6.15;100.00
27294;BME280;14785;52.556;13.430;2023-12-22T09:11:15;-17980.81;;;7.21;100.00
27294;BME280;14785;52.556;13.430;2023-12-22T09:13:42;-17956.38;;;6.33;100.00
27294;BME280;14785;52.556;13.430;2023-12-22T09:16:08;-18285.69;;;6.44;100.00
27294;BME280;14785;52.556;13.430;2023-12-22T09:18:34;-17315.06;;;6.76;100.00
27294;BME280;14785;52.556;13.430;2023-12-22T09:21:00;-16995.19;;;7.02;100.00
27294;BME280;14785;52.556;13.430;2023-12-22T09:23:26;-16335.16;;;6.77;100.00
27294;BME280;14785;52.556;13.430;2023-12-22T09:25:52;-15343.66;;;6.30;100.00
27294;BME280;14785;52.556;13.430;2023-12-22T09:28:18;-15674.34;;;6.47;100.00
27294;BME280;14785;52.556;13.430;2023-12-22T09:30:43;-15035.19;;;7.09;100.00
27294;BME280;14785;52.556;13.430;2023-12-22T09:33:09;-14378.25;;;6.97;100.00
27294;BME280;14785;52.556;13.430;2023-12-22T09:35:35;-13728.75;;;7.19;100.00
27294;BME280;14785;52.556;13.430;2023-12-22T09:38:01;-11433.22;;;6.96;100.00
27294;BME280;14785;52.556;13.430;2023-12-22T09:40:27;-10780.34;;;7.08;100.00
27294;BME280;14785;52.556;13.430;2023-12-22T09:42:55;-9141.81;;;7.03;100.00
27294;BME280;14785;52.556;13.430;2023-12-22T09:45:22;-7174.78;;;6.97;100.00
27294;BME280;14785;52.556;13.430;2023-12-22T09:47:48;-7504.75;;;7.17;100.00
27294;BME280;14785;52.556;13.430;2023-12-22T09:50:15;-5379.59;;;7.38;100.00
27294;BME280;14785;52.556;13.430;2023-12-22T09:52:44;-3430.56;;;7.43;100.00
27294;BME280;14785;52.556;13.430;2023-12-22T09:55:13;-1179.59;;;7.39;100.00
27294;BME280;14785;52.556;13.430;2023-12-22T09:57:39;1111.47;;;6.64;100.00
27294;BME280;14785;52.556;13.430;2023-12-22T10:00:09;-91.00;;;7.28;100.00
27294;BME280;14785;52.556;13.430;2023-12-22T10:02:39;-776.47;;;7.67;100.00
27294;BME280;14785;52.556;13.430;2023-12-22T10:05:07;-750.84;;;7.20;100.00
27294;BME280;14785;52.556;13.430;2023-12-22T10:07:33;-1477.56;;;7.56;100.00
27294;BME280;14785;52.556;13.430;2023-12-22T10:09:59;-1439.25;;;7.78;100.00
27294;BME280;14785;52.556;13.430;2023-12-22T10:12:26;-1015.28;;;7.40;100.00
27294;BME280;14785;52.556;13.430;2023-12-22T10:14:53;957.25;;;7.43;100.00
27294;BME280;14785;52.556;13.430;2023-12-22T10:17:19;185.94;;;7.05;100.00
27294;BME280;14785;52.556;13.430;2023-12-22T10:19:45;670.41;;;6.75;100.00
27294;BME280;14785;52.556;13.430;2023-12-22T10:22:10;-386.50;;;7.00;100.00
27294;BME280;14785;52.556;13.430;2023-12-22T10:24:43;1221.78;;;7.40;100.00
27294;BME280;14785;52.556;13.430;2023-12-22T10:27:11;2662.72;;;7.27;100.00
27294;BME280;14785;52.556;13.430;2023-12-22T10:29:37;4473.16;;;7.06;100.00
27294;BME280;14785;52.556;13.430;2023-12-22T10:32:04;3474.16;;;8.27;100.00
27294;BME280;14785;52.556;13.430;2023-12-22T10:34:30;6366.28;;;7.57;100.00
27294;BME280;14785;52.556;13.430;2023-12-22T10:36:56;5089.28;;;8.05;100.00
27294;BME280;14785;52.556;13.430;2023-12-22T10:39:21;7653.38;;;7.18;100.00
27294;BME280;14785;52.556;13.430;2023-12-22T10:41:47;6569.91;;;7.80;100.00
27294;BME280;14785;52.556;13.430;2023-12-22T10:44:15;7617.50;;;7.38;100.00
27294;BME280;14785;52.556;13.430;2023-12-22T10:46:42;7322.56;;;7.46;100.00
27294;BME280;14785;52.556;13.430;2023-12-22T10:49:07;7303.56;;;7.58;100.00
27294;BME280;14785;52.556;13.430;2023-12-22T10:51:33;7611.56;;;7.51;100.00
27294;BME280;14785;52.556;13.430;2023-12-22T10:53:58;8285.44;;;8.68;100.00
27294;BME280;14785;52.556;13.430;2023-12-22T10:56:24;8310.16;;;7.56;100.00
27294;BME280;14785;52.556;13.430;2023-12-22T10:58:50;8528.09;;;7.50;100.00
27294;BME280;14785;52.556;13.430;2023-12-22T11:01:17;8172.69;;;7.67;100.00
27294;BME280;14785;52.556;13.430;2023-12-22T11:03:43;9531.19;;;7.41;100.00
27294;BME280;14785;52.556;13.430;2023-12-22T11:06:10;9140.97;;;7.81;100.00
27294;BME280;14785;52.556;13.430;2023-12-22T11:08:36;8055.81;;;7.78;100.00
27294;BME280;14785;52.556;13.430;2023-12-22T11:11:03;8510.28;;;7.51;100.00
27294;BME280;14785;52.556;13.430;2023-12-22T11:13:34;7065.00;;;7.86;100.00
27294;BME280;14785;52.556;13.430;2023-12-22T11:16:01;10049.75;;;8.04;100.00
27294;BME280;14785;52.556;13.430;2023-12-22T11:18:26;10693.16;;;7.83;100.00
27294;BME280;14785;52.556;13.430;2023-12-22T11:20:52;11869.25;;;7.83;100.00
27294;BME280;14785;52.556;13.430;2023-12-22T11:23:18;11359.78;;;8.16;100.00
27294;BME280;14785;52.556;13.430;2023-12-22T11:25:45;12720.25;;;7.12;100.00
27294;BME280;14785;52.556;13.430;2023-12-22T11:28:14;12671.88;;;7.26;100.00
27294;BME280;14785;52.556;13.430;2023-12-22T11:30:42;12365.59;;;7.76;100.00
27294;BME280;14785;52.556;13.430;2023-12-22T11:33:08;11846.44;;;7.60;100.00
27294;BME280;14785;52.556;13.430;2023-12-22T11:35:35;13026.25;;;7.77;100.00
27294;BME280;14785;52.556;13.430;2023-12-22T11:38:01;13350.28;;;7.84;100.00
27294;BME280;14785;52.556;13.430;2023-12-22T11:40:28;13379.13;;;8.20;100.00
27294;BME280;14785;52.556;13.430;2023-12-22T11:42:54;14787.53;;;9.35;100.00
27294;BME280;14785;52.556;13.430;2023-12-22T11:45:19;15635.44;;;8.54;100.00
27294;BME280;14785;52.556;13.430;2023-12-22T11:47:48;15104.00;;;7.28;100.00
27294;BME280;14785;52.556;13.430;2023-12-22T11:50:14;14953.25;;;8.75;100.00
27294;BME280;14785;52.556;13.430;2023-12-22T11:52:53;15297.50;;;8.66;100.00
27294;BME280;14785;52.556;13.430;2023-12-22T11:55:18;15378.63;;;8.80;100.00
27294;BME280;14785;52.556;13.430;2023-12-22T12:00:47;15298.56;;;7.92;100.00
27294;BME280;14785;52.556;13.430;2023-12-22T12:03:17;14832.41;;;7.66;100.00
27294;BME280;14785;52.556;13.430;2023-12-22T12:05:43;14491.66;;;8.38;100.00
27294;BME280;14785;52.556;13.430;2023-12-22T12:08:08;14076.03;;;8.08;100.00
27294;BME280;14785;52.556;13.430;2023-12-22T12:13:07;13776.72;;;8.63;100.00
27294;BME280;14785;52.556;13.430;2023-12-22T12:15:50;13556.13;;;7.59;100.00
27294;BME280;14785;52.556;13.430;2023-12-22T12:18:16;13058.69;;;7.38;100.00
27294;BME280;14785;52.556;13.430;2023-12-22T12:20:46;12465.13;;;8.31;100.00
27294;BME280;14785;52.556;13.430;2023-12-22T12:23:13;13436.81;;;8.01;100.00
27294;BME280;14785;52.556;13.430;2023-12-22T12:25:38;13271.34;;;7.77;100.00
27294;BME280;14785;52.556;13.430;2023-12-22T12:28:06;12263.56;;;8.06;100.00
27294;BME280;14785;52.556;13.430;2023-12-22T12:30:33;12609.91;;;7.49;100.00
27294;BME280;14785;52.556;13.430;2023-12-22T12:33:05;11915.69;;;7.83;100.00
27294;BME280;14785;52.556;13.430;2023-12-22T12:35:35;12131.59;;;8.17;100.00
27294;BME280;14785;52.556;13.430;2023-12-22T12:38:00;12927.41;;;7.39;100.00
27294;BME280;14785;52.556;13.430;2023-12-22T12:40:27;12260.31;;;7.54;100.00
27294;BME280;14785;52.556;13.430;2023-12-22T12:42:54;11379.34;;;8.36;100.00
27294;BME280;14785;52.556;13.430;2023-12-22T12:45:24;12252.94;;;8.65;100.00
27294;BME280;14785;52.556;13.430;2023-12-22T12:50:21;11613.22;;;7.67;100.00